sensor_id;sensor_type;location;lat;lon;timestamp;P1;durP1;ratioP1;P2;durP2;ratioP2
10458;SDS011;5277;48.722;8.736;2023-06-01T00:01:12;4.47;;;3.05;;
10458;SDS011;5277;48.722;8.736;2023-06-01T00:03:39;7.47;;;3.25;;
10458;SDS011;5277;48.722;8.736;2023-06-01T00:06:05;3.78;;;2.88;;
10458;SDS011;5277;48.722;8.736;2023-06-01T00:08:31;5.05;;;3.13;;
10458;SDS011;5277;48.722;8.736;2023-06-01T00:10:57;5.75;;;2.97;;
10458;SDS011;5277;48.722;8.736;2023-06-01T00:13:22;5.82;;;3.42;;
10458;SDS011;5277;48.722;8.736;2023-06-01T00:15:48;4.80;;;2.95;;
10458;SDS011;5277;48.722;8.736;2023-06-01T00:18:13;5.40;;;3.25;;
10458;SDS011;5277;48.722;8.736;2023-06-01T00:20:40;6.68;;;3.10;;
10458;SDS011;5277;48.722;8.736;2023-06-01T00:23:06;4.47;;;3.10;;
10458;SDS011;5277;48.722;8.736;2023-06-01T00:25:33;5.75;;;3.35;;
10458;SDS011;5277;48.722;8.736;2023-06-01T00:27:59;4.07;;;3.10;;
10458;SDS011;5277;48.722;8.736;2023-06-01T00:30:27;6.03;;;3.05;;
10458;SDS011;5277;48.722;8.736;2023-06-01T00:32:53;4.55;;;2.90;;
10458;SDS011;5277;48.722;8.736;2023-06-01T00:35:18;7.43;;;3.30;;
10458;SDS011;5277;48.722;8.736;2023-06-01T00:37:44;6.28;;;2.85;;
10458;SDS011;5277;48.722;8.736;2023-06-01T00:40:10;6.22;;;2.85;;
10458;SDS011;5277;48.722;8.736;2023-06-01T00:42:35;4.40;;;3.20;;
10458;SDS011;5277;48.722;8.736;2023-06-01T00:45:01;5.47;;;3.00;;
10458;SDS011;5277;48.722;8.736;2023-06-01T00:47:27;6.43;;;2.58;;
10458;SDS011;5277;48.722;8.736;2023-06-01T00:49:52;4.93;;;2.97;;
10458;SDS011;5277;48.722;8.736;2023-06-01T00:52:18;6.60;;;3.03;;
10458;SDS011;5277;48.722;8.736;2023-06-01T00:54:45;5.03;;;2.97;;
10458;SDS011;5277;48.722;8.736;2023-06-01T00:57:11;4.05;;;2.78;;
10458;SDS011;5277;48.722;8.736;2023-06-01T00:59:36;6.18;;;3.03;;
10458;SDS011;5277;48.722;8.736;2023-06-01T01:02:03;5.07;;;2.85;;
10458;SDS011;5277;48.722;8.736;2023-06-01T01:04:29;5.13;;;3.15;;
10458;SDS011;5277;48.722;8.736;2023-06-01T01:10:41;4.68;;;3.42;;
10458;SDS011;5277;48.722;8.736;2023-06-01T01:12:54;4.93;;;2.95;;
10458;SDS011;5277;48.722;8.736;2023-06-01T01:15:41;5.05;;;2.97;;
10458;SDS011;5277;48.722;8.736;2023-06-01T01:18:11;4.80;;;2.88;;
10458;SDS011;5277;48.722;8.736;2023-06-01T01:20:43;4.93;;;3.22;;
10458;SDS011;5277;48.722;8.736;2023-06-01T01:28:32;5.05;;;2.78;;
10458;SDS011;5277;48.722;8.736;2023-06-01T01:31:02;5.00;;;3.50;;
10458;SDS011;5277;48.722;8.736;2023-06-01T01:33:31;7.82;;;3.22;;
10458;SDS011;5277;48.722;8.736;2023-06-01T01:35:58;6.05;;;2.97;;
10458;SDS011;5277;48.722;8.736;2023-06-01T01:38:25;4.43;;;3.10;;
10458;SDS011;5277;48.722;8.736;2023-06-01T01:40:50;4.72;;;2.75;;
10458;SDS011;5277;48.722;8.736;2023-06-01T01:43:18;5.63;;;2.83;;
10458;SDS011;5277;48.722;8.736;2023-06-01T01:45:45;4.95;;;2.85;;
10458;SDS011;5277;48.722;8.736;2023-06-01T01:48:20;4.88;;;2.85;;
10458;SDS011;5277;48.722;8.736;2023-06-01T01:51:01;5.45;;;3.40;;
10458;SDS011;5277;48.722;8.736;2023-06-01T01:53:31;5.30;;;3.15;;
10458;SDS011;5277;48.722;8.736;2023-06-01T01:55:57;4.97;;;3.30;;
10458;SDS011;5277;48.722;8.736;2023-06-01T01:58:24;6.55;;;3.45;;
10458;SDS011;5277;48.722;8.736;2023-06-01T02:00:51;5.93;;;3.72;;
10458;SDS011;5277;48.722;8.736;2023-06-01T02:03:18;5.38;;;3.35;;
10458;SDS011;5277;48.722;8.736;2023-06-01T02:05:44;6.00;;;3.17;;
10458;SDS011;5277;48.722;8.736;2023-06-01T02:08:10;4.35;;;3.42;;
10458;SDS011;5277;48.722;8.736;2023-06-01T02:10:36;6.28;;;3.63;;
10458;SDS011;5277;48.722;8.736;2023-06-01T02:13:02;6.70;;;3.42;;
10458;SDS011;5277;48.722;8.736;2023-06-01T02:15:28;5.93;;;3.35;;
10458;SDS011;5277;48.722;8.736;2023-06-01T02:17:53;5.35;;;2.78;;
10458;SDS011;5277;48.722;8.736;2023-06-01T02:20:19;5.05;;;3.10;;
10458;SDS011;5277;48.722;8.736;2023-06-01T02:22:45;7.40;;;3.42;;
10458;SDS011;5277;48.722;8.736;2023-06-01T02:25:11;6.43;;;3.60;;
10458;SDS011;5277;48.722;8.736;2023-06-01T02:27:36;6.78;;;3.63;;
10458;SDS011;5277;48.722;8.736;2023-06-01T02:30:02;4.95;;;3.15;;
10458;SDS011;5277;48.722;8.736;2023-06-01T02:32:28;5.45;;;3.10;;
10458;SDS011;5277;48.722;8.736;2023-06-01T02:34:55;6.43;;;3.50;;
10458;SDS011;5277;48.722;8.736;2023-06-01T02:37:21;4.97;;;3.20;;
10458;SDS011;5277;48.722;8.736;2023-06-01T02:39:46;6.65;;;3.53;;
10458;SDS011;5277;48.722;8.736;2023-06-01T02:42:12;5.47;;;3.75;;
10458;SDS011;5277;48.722;8.736;2023-06-01T02:44:38;8.40;;;3.80;;
10458;SDS011;5277;48.722;8.736;2023-06-01T02:47:04;6.68;;;3.63;;
10458;SDS011;5277;48.722;8.736;2023-06-01T02:49:30;9.77;;;3.47;;
10458;SDS011;5277;48.722;8.736;2023-06-01T02:51:56;5.15;;;3.40;;
10458;SDS011;5277;48.722;8.736;2023-06-01T02:54:21;7.07;;;3.00;;
10458;SDS011;5277;48.722;8.736;2023-06-01T02:56:47;4.72;;;3.70;;
10458;SDS011;5277;48.722;8.736;2023-06-01T02:59:12;5.68;;;3.63;;
10458;SDS011;5277;48.722;8.736;2023-06-01T03:01:38;4.93;;;3.08;;
10458;SDS011;5277;48.722;8.736;2023-06-01T03:04:04;5.78;;;3.47;;
10458;SDS011;5277;48.722;8.736;2023-06-01T03:06:30;6.50;;;3.65;;
10458;SDS011;5277;48.722;8.736;2023-06-01T03:08:57;6.10;;;3.38;;
10458;SDS011;5277;48.722;8.736;2023-06-01T03:11:23;5.80;;;4.05;;
10458;SDS011;5277;48.722;8.736;2023-06-01T03:13:49;5.88;;;3.38;;
10458;SDS011;5277;48.722;8.736;2023-06-01T03:16:15;5.72;;;3.28;;
10458;SDS011;5277;48.722;8.736;2023-06-01T03:18:41;7.75;;;3.70;;
10458;SDS011;5277;48.722;8.736;2023-06-01T03:21:07;8.52;;;4.00;;
10458;SDS011;5277;48.722;8.736;2023-06-01T03:23:33;7.10;;;4.25;;
10458;SDS011;5277;48.722;8.736;2023-06-01T03:25:58;9.98;;;3.60;;
10458;SDS011;5277;48.722;8.736;2023-06-01T03:28:24;5.32;;;3.50;;
10458;SDS011;5277;48.722;8.736;2023-06-01T03:30:50;12.32;;;8.02;;
10458;SDS011;5277;48.722;8.736;2023-06-01T03:33:16;24.48;;;16.80;;
10458;SDS011;5277;48.722;8.736;2023-06-01T03:35:41;14.23;;;8.18;;
10458;SDS011;5277;48.722;8.736;2023-06-01T03:38:09;12.93;;;7.43;;
10458;SDS011;5277;48.722;8.736;2023-06-01T03:40:34;8.05;;;5.13;;
10458;SDS011;5277;48.722;8.736;2023-06-01T03:43:00;7.82;;;3.90;;
10458;SDS011;5277;48.722;8.736;2023-06-01T03:45:27;7.63;;;4.55;;
10458;SDS011;5277;48.722;8.736;2023-06-01T03:47:53;8.98;;;4.70;;
10458;SDS011;5277;48.722;8.736;2023-06-01T03:50:18;7.70;;;4.70;;
10458;SDS011;5277;48.722;8.736;2023-06-01T03:52:44;7.55;;;4.88;;
10458;SDS011;5277;48.722;8.736;2023-06-01T03:55:10;7.10;;;4.20;;
10458;SDS011;5277;48.722;8.736;2023-06-01T03:57:38;6.47;;;4.20;;
10458;SDS011;5277;48.722;8.736;2023-06-01T04:00:07;8.15;;;5.47;;
10458;SDS011;5277;48.722;8.736;2023-06-01T04:02:52;9.05;;;5.65;;
10458;SDS011;5277;48.722;8.736;2023-06-01T04:05:19;7.22;;;4.78;;
10458;SDS011;5277;48.722;8.736;2023-06-01T04:07:46;5.82;;;4.22;;
10458;SDS011;5277;48.722;8.736;2023-06-01T04:10:13;5.63;;;3.85;;
10458;SDS011;5277;48.722;8.736;2023-06-01T04:12:41;5.80;;;3.78;;
10458;SDS011;5277;48.722;8.736;2023-06-01T04:15:11;4.88;;;3.67;;
10458;SDS011;5277;48.722;8.736;2023-06-01T04:17:38;5.20;;;3.42;;
10458;SDS011;5277;48.722;8.736;2023-06-01T04:20:05;8.68;;;4.00;;
10458;SDS011;5277;48.722;8.736;2023-06-01T04:22:34;4.82;;;3.30;;
10458;SDS011;5277;48.722;8.736;2023-06-01T04:25:00;7.22;;;3.90;;
10458;SDS011;5277;48.722;8.736;2023-06-01T04:27:26;5.75;;;3.65;;
10458;SDS011;5277;48.722;8.736;2023-06-01T04:29:52;5.95;;;4.20;;
10458;SDS011;5277;48.722;8.736;2023-06-01T04:32:24;6.60;;;3.65;;
10458;SDS011;5277;48.722;8.736;2023-06-01T04:34:50;10.10;;;4.22;;
10458;SDS011;5277;48.722;8.736;2023-06-01T04:37:16;5.40;;;3.90;;
10458;SDS011;5277;48.722;8.736;2023-06-01T04:39:44;5.43;;;3.70;;
10458;SDS011;5277;48.722;8.736;2023-06-01T04:42:15;6.10;;;4.20;;
10458;SDS011;5277;48.722;8.736;2023-06-01T04:44:42;7.43;;;3.83;;
10458;SDS011;5277;48.722;8.736;2023-06-01T04:47:08;6.25;;;3.85;;
10458;SDS011;5277;48.722;8.736;2023-06-01T04:49:33;6.10;;;3.72;;
10458;SDS011;5277;48.722;8.736;2023-06-01T04:52:01;8.25;;;3.67;;
10458;SDS011;5277;48.722;8.736;2023-06-01T04:54:27;9.95;;;4.03;;
10458;SDS011;5277;48.722;8.736;2023-06-01T04:56:52;7.10;;;3.78;;
10458;SDS011;5277;48.722;8.736;2023-06-01T04:59:18;4.43;;;3.15;;
10458;SDS011;5277;48.722;8.736;2023-06-01T05:01:44;4.13;;;3.55;;
10458;SDS011;5277;48.722;8.736;2023-06-01T05:04:10;6.88;;;3.63;;
10458;SDS011;5277;48.722;8.736;2023-06-01T05:06:35;5.75;;;3.50;;
10458;SDS011;5277;48.722;8.736;2023-06-01T05:09:01;6.65;;;4.88;;
10458;SDS011;5277;48.722;8.736;2023-06-01T05:11:30;6.47;;;3.80;;
10458;SDS011;5277;48.722;8.736;2023-06-01T05:13:56;5.13;;;3.85;;
10458;SDS011;5277;48.722;8.736;2023-06-01T05:16:26;4.88;;;3.35;;
10458;SDS011;5277;48.722;8.736;2023-06-01T05:18:52;7.72;;;4.03;;
10458;SDS011;5277;48.722;8.736;2023-06-01T05:21:18;7.15;;;3.80;;
10458;SDS011;5277;48.722;8.736;2023-06-01T05:23:44;9.82;;;3.97;;
10458;SDS011;5277;48.722;8.736;2023-06-01T05:26:10;5.60;;;3.85;;
10458;SDS011;5277;48.722;8.736;2023-06-01T05:28:35;5.20;;;3.53;;
10458;SDS011;5277;48.722;8.736;2023-06-01T05:31:01;5.00;;;3.72;;
10458;SDS011;5277;48.722;8.736;2023-06-01T05:33:28;6.60;;;3.72;;
10458;SDS011;5277;48.722;8.736;2023-06-01T05:35:53;4.65;;;3.50;;
10458;SDS011;5277;48.722;8.736;2023-06-01T05:38:19;5.78;;;3.67;;
10458;SDS011;5277;48.722;8.736;2023-06-01T05:40:45;9.40;;;4.05;;
10458;SDS011;5277;48.722;8.736;2023-06-01T05:43:10;7.43;;;3.63;;
10458;SDS011;5277;48.722;8.736;2023-06-01T05:45:36;12.10;;;3.80;;
10458;SDS011;5277;48.722;8.736;2023-06-01T05:48:02;9.02;;;3.80;;
10458;SDS011;5277;48.722;8.736;2023-06-01T05:50:28;7.63;;;3.55;;
10458;SDS011;5277;48.722;8.736;2023-06-01T05:52:54;6.82;;;3.15;;
10458;SDS011;5277;48.722;8.736;2023-06-01T05:55:19;6.43;;;3.10;;
10458;SDS011;5277;48.722;8.736;2023-06-01T05:57:45;5.88;;;3.25;;
10458;SDS011;5277;48.722;8.736;2023-06-01T06:00:11;5.20;;;3.10;;
10458;SDS011;5277;48.722;8.736;2023-06-01T06:02:38;5.20;;;2.90;;
10458;SDS011;5277;48.722;8.736;2023-06-01T06:05:05;7.45;;;3.42;;
10458;SDS011;5277;48.722;8.736;2023-06-01T06:07:31;7.13;;;3.25;;
10458;SDS011;5277;48.722;8.736;2023-06-01T06:09:57;6.75;;;3.10;;
10458;SDS011;5277;48.722;8.736;2023-06-01T06:12:22;5.18;;;2.95;;
10458;SDS011;5277;48.722;8.736;2023-06-01T06:14:48;7.28;;;3.22;;
10458;SDS011;5277;48.722;8.736;2023-06-01T06:17:14;4.70;;;2.85;;
10458;SDS011;5277;48.722;8.736;2023-06-01T06:19:40;4.95;;;3.10;;
10458;SDS011;5277;48.722;8.736;2023-06-01T06:22:08;4.72;;;3.20;;
10458;SDS011;5277;48.722;8.736;2023-06-01T06:24:34;7.18;;;3.15;;
10458;SDS011;5277;48.722;8.736;2023-06-01T06:27:00;4.80;;;2.75;;
10458;SDS011;5277;48.722;8.736;2023-06-01T06:29:26;6.47;;;2.75;;
10458;SDS011;5277;48.722;8.736;2023-06-01T06:31:52;3.65;;;2.92;;
10458;SDS011;5277;48.722;8.736;2023-06-01T06:34:19;6.97;;;3.10;;
10458;SDS011;5277;48.722;8.736;2023-06-01T06:36:44;5.97;;;3.38;;
10458;SDS011;5277;48.722;8.736;2023-06-01T06:39:11;6.40;;;3.22;;
10458;SDS011;5277;48.722;8.736;2023-06-01T06:41:37;4.35;;;2.78;;
10458;SDS011;5277;48.722;8.736;2023-06-01T06:44:05;5.45;;;3.08;;
10458;SDS011;5277;48.722;8.736;2023-06-01T06:46:30;6.05;;;2.88;;
10458;SDS011;5277;48.722;8.736;2023-06-01T06:48:56;4.22;;;2.80;;
10458;SDS011;5277;48.722;8.736;2023-06-01T06:51:21;8.27;;;3.05;;
10458;SDS011;5277;48.722;8.736;2023-06-01T06:53:47;4.82;;;3.15;;
10458;SDS011;5277;48.722;8.736;2023-06-01T06:56:13;4.10;;;2.78;;
10458;SDS011;5277;48.722;8.736;2023-06-01T06:58:38;5.50;;;3.10;;
10458;SDS011;5277;48.722;8.736;2023-06-01T07:01:04;4.60;;;2.72;;
10458;SDS011;5277;48.722;8.736;2023-06-01T07:03:30;4.20;;;3.05;;
10458;SDS011;5277;48.722;8.736;2023-06-01T07:05:57;11.63;;;3.45;;
10458;SDS011;5277;48.722;8.736;2023-06-01T07:08:23;5.65;;;3.00;;
10458;SDS011;5277;48.722;8.736;2023-06-01T07:10:48;4.15;;;2.65;;
10458;SDS011;5277;48.722;8.736;2023-06-01T07:13:14;14.70;;;3.30;;
10458;SDS011;5277;48.722;8.736;2023-06-01T07:15:39;3.72;;;2.45;;
10458;SDS011;5277;48.722;8.736;2023-06-01T07:18:05;5.68;;;3.17;;
10458;SDS011;5277;48.722;8.736;2023-06-01T07:20:31;4.55;;;2.42;;
10458;SDS011;5277;48.722;8.736;2023-06-01T07:22:57;5.57;;;3.10;;
10458;SDS011;5277;48.722;8.736;2023-06-01T07:25:22;7.03;;;2.70;;
10458;SDS011;5277;48.722;8.736;2023-06-01T07:27:48;6.47;;;2.60;;
10458;SDS011;5277;48.722;8.736;2023-06-01T07:30:14;5.10;;;2.78;;
10458;SDS011;5277;48.722;8.736;2023-06-01T07:32:41;3.63;;;2.50;;
10458;SDS011;5277;48.722;8.736;2023-06-01T07:35:07;5.18;;;2.83;;
10458;SDS011;5277;48.722;8.736;2023-06-01T07:37:33;4.68;;;2.90;;
10458;SDS011;5277;48.722;8.736;2023-06-01T07:39:59;7.75;;;2.80;;
10458;SDS011;5277;48.722;8.736;2023-06-01T07:42:25;6.57;;;3.08;;
10458;SDS011;5277;48.722;8.736;2023-06-01T07:44:50;3.85;;;2.60;;
10458;SDS011;5277;48.722;8.736;2023-06-01T07:47:16;4.43;;;2.80;;
10458;SDS011;5277;48.722;8.736;2023-06-01T07:49:42;6.97;;;2.65;;
10458;SDS011;5277;48.722;8.736;2023-06-01T07:52:07;6.45;;;2.97;;
10458;SDS011;5277;48.722;8.736;2023-06-01T07:54:34;5.95;;;2.78;;
10458;SDS011;5277;48.722;8.736;2023-06-01T07:57:02;5.90;;;3.25;;
10458;SDS011;5277;48.722;8.736;2023-06-01T07:59:29;6.32;;;2.92;;
10458;SDS011;5277;48.722;8.736;2023-06-01T08:01:55;4.72;;;3.00;;
10458;SDS011;5277;48.722;8.736;2023-06-01T08:04:21;10.48;;;3.35;;
10458;SDS011;5277;48.722;8.736;2023-06-01T08:06:48;6.78;;;2.75;;
10458;SDS011;5277;48.722;8.736;2023-06-01T08:09:18;12.48;;;3.22;;
10458;SDS011;5277;48.722;8.736;2023-06-01T08:11:45;7.25;;;2.95;;
10458;SDS011;5277;48.722;8.736;2023-06-01T08:14:10;12.73;;;3.38;;
10458;SDS011;5277;48.722;8.736;2023-06-01T08:16:36;8.85;;;3.30;;
10458;SDS011;5277;48.722;8.736;2023-06-01T08:19:02;6.10;;;3.13;;
10458;SDS011;5277;48.722;8.736;2023-06-01T08:21:28;9.98;;;3.33;;
10458;SDS011;5277;48.722;8.736;2023-06-01T08:23:54;5.82;;;3.10;;
10458;SDS011;5277;48.722;8.736;2023-06-01T08:26:20;6.55;;;3.35;;
10458;SDS011;5277;48.722;8.736;2023-06-01T08:28:47;4.82;;;3.05;;
10458;SDS011;5277;48.722;8.736;2023-06-01T08:31:21;6.00;;;3.53;;
10458;SDS011;5277;48.722;8.736;2023-06-01T08:33:48;4.70;;;3.58;;
10458;SDS011;5277;48.722;8.736;2023-06-01T08:36:15;9.00;;;3.42;;
10458;SDS011;5277;48.722;8.736;2023-06-01T08:38:41;5.53;;;3.20;;
10458;SDS011;5277;48.722;8.736;2023-06-01T08:41:11;6.15;;;3.40;;
10458;SDS011;5277;48.722;8.736;2023-06-01T08:43:51;6.13;;;3.55;;
10458;SDS011;5277;48.722;8.736;2023-06-01T08:46:22;9.07;;;3.85;;
10458;SDS011;5277;48.722;8.736;2023-06-01T08:48:53;5.85;;;3.05;;
10458;SDS011;5277;48.722;8.736;2023-06-01T08:51:21;7.53;;;3.65;;
10458;SDS011;5277;48.722;8.736;2023-06-01T08:53:48;4.20;;;3.35;;
10458;SDS011;5277;48.722;8.736;2023-06-01T08:56:14;6.55;;;3.35;;
10458;SDS011;5277;48.722;8.736;2023-06-01T08:58:40;6.53;;;3.53;;
10458;SDS011;5277;48.722;8.736;2023-06-01T09:01:08;5.45;;;3.55;;
10458;SDS011;5277;48.722;8.736;2023-06-01T09:03:34;7.68;;;3.65;;
10458;SDS011;5277;48.722;8.736;2023-06-01T09:06:00;7.97;;;3.60;;
10458;SDS011;5277;48.722;8.736;2023-06-01T09:08:26;19.65;;;4.50;;
10458;SDS011;5277;48.722;8.736;2023-06-01T09:10:52;6.47;;;3.38;;
10458;SDS011;5277;48.722;8.736;2023-06-01T09:13:33;7.00;;;3.35;;
10458;SDS011;5277;48.722;8.736;2023-06-01T09:16:00;5.00;;;3.88;;
10458;SDS011;5277;48.722;8.736;2023-06-01T09:18:26;8.43;;;3.65;;
10458;SDS011;5277;48.722;8.736;2023-06-01T09:20:52;5.03;;;3.30;;
10458;SDS011;5277;48.722;8.736;2023-06-01T09:23:25;7.68;;;4.22;;
10458;SDS011;5277;48.722;8.736;2023-06-01T09:26:07;5.40;;;3.80;;
10458;SDS011;5277;48.722;8.736;2023-06-01T09:31:43;9.50;;;3.60;;
10458;SDS011;5277;48.722;8.736;2023-06-01T09:34:11;5.28;;;3.55;;
10458;SDS011;5277;48.722;8.736;2023-06-01T09:36:42;7.28;;;3.92;;
10458;SDS011;5277;48.722;8.736;2023-06-01T09:39:17;8.13;;;4.15;;
10458;SDS011;5277;48.722;8.736;2023-06-01T09:41:52;9.20;;;4.38;;
10458;SDS011;5277;48.722;8.736;2023-06-01T09:44:32;6.85;;;4.10;;
10458;SDS011;5277;48.722;8.736;2023-06-01T09:47:05;5.78;;;4.15;;
10458;SDS011;5277;48.722;8.736;2023-06-01T09:49:41;7.43;;;3.83;;
10458;SDS011;5277;48.722;8.736;2023-06-01T09:52:15;6.03;;;4.40;;
10458;SDS011;5277;48.722;8.736;2023-06-01T09:54:45;5.22;;;4.07;;
10458;SDS011;5277;48.722;8.736;2023-06-01T09:57:13;6.75;;;4.22;;
10458;SDS011;5277;48.722;8.736;2023-06-01T09:59:48;5.15;;;3.90;;
10458;SDS011;5277;48.722;8.736;2023-06-01T10:02:14;7.35;;;4.53;;
10458;SDS011;5277;48.722;8.736;2023-06-01T10:04:44;7.88;;;4.40;;
10458;SDS011;5277;48.722;8.736;2023-06-01T10:07:13;7.90;;;4.15;;
10458;SDS011;5277;48.722;8.736;2023-06-01T10:09:41;5.82;;;4.05;;
10458;SDS011;5277;48.722;8.736;2023-06-01T10:12:08;6.75;;;4.05;;
10458;SDS011;5277;48.722;8.736;2023-06-01T10:14:35;7.43;;;3.63;;
10458;SDS011;5277;48.722;8.736;2023-06-01T10:17:06;6.47;;;4.32;;
10458;SDS011;5277;48.722;8.736;2023-06-01T10:19:32;4.82;;;3.60;;
10458;SDS011;5277;48.722;8.736;2023-06-01T10:22:00;5.97;;;4.15;;
10458;SDS011;5277;48.722;8.736;2023-06-01T10:24:28;7.93;;;4.32;;
10458;SDS011;5277;48.722;8.736;2023-06-01T10:29:30;6.70;;;4.03;;
10458;SDS011;5277;48.722;8.736;2023-06-01T10:31:56;9.85;;;4.20;;
10458;SDS011;5277;48.722;8.736;2023-06-01T10:34:41;6.25;;;4.28;;
10458;SDS011;5277;48.722;8.736;2023-06-01T10:37:09;7.85;;;4.18;;
10458;SDS011;5277;48.722;8.736;2023-06-01T10:39:36;7.75;;;4.40;;
10458;SDS011;5277;48.722;8.736;2023-06-01T10:54:54;6.43;;;3.95;;
10458;SDS011;5277;48.722;8.736;2023-06-01T10:57:24;8.73;;;4.20;;
10458;SDS011;5277;48.722;8.736;2023-06-01T11:02:53;6.93;;;4.43;;
10458;SDS011;5277;48.722;8.736;2023-06-01T11:05:39;7.15;;;4.45;;
10458;SDS011;5277;48.722;8.736;2023-06-01T11:08:06;7.10;;;4.60;;
10458;SDS011;5277;48.722;8.736;2023-06-01T11:21:15;7.63;;;4.00;;
10458;SDS011;5277;48.722;8.736;2023-06-01T11:23:43;5.55;;;3.83;;
10458;SDS011;5277;48.722;8.736;2023-06-01T11:26:10;6.35;;;4.15;;
10458;SDS011;5277;48.722;8.736;2023-06-01T11:28:38;6.63;;;4.28;;
10458;SDS011;5277;48.722;8.736;2023-06-01T11:31:08;5.38;;;4.38;;
10458;SDS011;5277;48.722;8.736;2023-06-01T11:33:35;9.15;;;4.38;;
10458;SDS011;5277;48.722;8.736;2023-06-01T11:36:03;7.35;;;4.38;;
10458;SDS011;5277;48.722;8.736;2023-06-01T11:38:34;8.73;;;3.70;;
10458;SDS011;5277;48.722;8.736;2023-06-01T11:41:01;5.93;;;3.92;;
10458;SDS011;5277;48.722;8.736;2023-06-01T11:43:27;10.05;;;4.75;;
10458;SDS011;5277;48.722;8.736;2023-06-01T11:46:04;7.13;;;4.88;;
10458;SDS011;5277;48.722;8.736;2023-06-01T11:48:31;6.22;;;4.28;;
10458;SDS011;5277;48.722;8.736;2023-06-01T11:50:59;5.85;;;4.15;;
10458;SDS011;5277;48.722;8.736;2023-06-01T11:53:31;8.13;;;4.70;;
10458;SDS011;5277;48.722;8.736;2023-06-01T11:55:57;7.55;;;4.18;;
10458;SDS011;5277;48.722;8.736;2023-06-01T11:58:24;6.65;;;3.97;;
10458;SDS011;5277;48.722;8.736;2023-06-01T12:00:54;7.00;;;4.28;;
10458;SDS011;5277;48.722;8.736;2023-06-01T12:03:20;6.15;;;4.18;;
10458;SDS011;5277;48.722;8.736;2023-06-01T12:05:46;6.53;;;4.40;;
10458;SDS011;5277;48.722;8.736;2023-06-01T12:08:23;6.13;;;4.32;;
10458;SDS011;5277;48.722;8.736;2023-06-01T12:10:50;7.90;;;3.95;;
10458;SDS011;5277;48.722;8.736;2023-06-01T12:13:18;7.25;;;3.97;;
10458;SDS011;5277;48.722;8.736;2023-06-01T12:15:45;5.30;;;3.97;;
10458;SDS011;5277;48.722;8.736;2023-06-01T12:18:11;5.15;;;4.22;;
10458;SDS011;5277;48.722;8.736;2023-06-01T12:28:15;8.93;;;4.10;;
10458;SDS011;5277;48.722;8.736;2023-06-01T12:30:42;4.63;;;4.10;;
10458;SDS011;5277;48.722;8.736;2023-06-01T12:33:08;4.53;;;3.85;;
10458;SDS011;5277;48.722;8.736;2023-06-01T12:35:47;6.85;;;4.28;;
10458;SDS011;5277;48.722;8.736;2023-06-01T12:38:15;4.78;;;4.00;;
10458;SDS011;5277;48.722;8.736;2023-06-01T12:40:41;4.63;;;4.07;;
10458;SDS011;5277;48.722;8.736;2023-06-01T12:43:16;7.07;;;4.43;;
10458;SDS011;5277;48.722;8.736;2023-06-01T12:45:46;5.72;;;4.53;;
10458;SDS011;5277;48.722;8.736;2023-06-01T12:51:00;6.70;;;4.50;;
10458;SDS011;5277;48.722;8.736;2023-06-01T12:53:27;7.45;;;4.22;;
10458;SDS011;5277;48.722;8.736;2023-06-01T12:55:53;8.95;;;4.35;;
10458;SDS011;5277;48.722;8.736;2023-06-01T12:58:19;8.77;;;4.28;;
10458;SDS011;5277;48.722;8.736;2023-06-01T13:00:44;6.65;;;3.85;;
10458;SDS011;5277;48.722;8.736;2023-06-01T13:03:10;5.78;;;4.20;;
10458;SDS011;5277;48.722;8.736;2023-06-01T13:05:36;13.68;;;3.95;;
10458;SDS011;5277;48.722;8.736;2023-06-01T13:08:02;6.97;;;3.45;;
10458;SDS011;5277;48.722;8.736;2023-06-01T13:10:28;7.05;;;3.95;;
10458;SDS011;5277;48.722;8.736;2023-06-01T13:12:54;8.77;;;3.90;;
10458;SDS011;5277;48.722;8.736;2023-06-01T13:15:20;7.47;;;4.05;;
10458;SDS011;5277;48.722;8.736;2023-06-01T13:17:46;8.77;;;4.38;;
10458;SDS011;5277;48.722;8.736;2023-06-01T13:20:12;6.05;;;4.60;;
10458;SDS011;5277;48.722;8.736;2023-06-01T13:22:41;5.32;;;4.10;;
10458;SDS011;5277;48.722;8.736;2023-06-01T13:25:07;5.55;;;4.15;;
10458;SDS011;5277;48.722;8.736;2023-06-01T13:27:33;9.23;;;4.32;;
10458;SDS011;5277;48.722;8.736;2023-06-01T13:29:59;11.82;;;4.50;;
10458;SDS011;5277;48.722;8.736;2023-06-01T13:32:26;7.75;;;4.30;;
10458;SDS011;5277;48.722;8.736;2023-06-01T13:34:52;5.88;;;3.50;;
10458;SDS011;5277;48.722;8.736;2023-06-01T13:37:18;5.22;;;3.72;;
10458;SDS011;5277;48.722;8.736;2023-06-01T13:39:44;4.40;;;3.70;;
10458;SDS011;5277;48.722;8.736;2023-06-01T13:42:09;5.97;;;3.78;;
10458;SDS011;5277;48.722;8.736;2023-06-01T13:44:35;4.40;;;3.83;;
10458;SDS011;5277;48.722;8.736;2023-06-01T13:47:01;8.30;;;3.90;;
10458;SDS011;5277;48.722;8.736;2023-06-01T13:49:26;12.52;;;5.88;;
10458;SDS011;5277;48.722;8.736;2023-06-01T13:51:52;7.45;;;4.28;;
10458;SDS011;5277;48.722;8.736;2023-06-01T13:54:18;9.52;;;5.60;;
10458;SDS011;5277;48.722;8.736;2023-06-01T13:56:44;8.68;;;4.85;;
10458;SDS011;5277;48.722;8.736;2023-06-01T13:59:09;6.00;;;4.97;;
10458;SDS011;5277;48.722;8.736;2023-06-01T14:01:35;4.80;;;3.85;;
10458;SDS011;5277;48.722;8.736;2023-06-01T14:04:01;6.57;;;3.78;;
10458;SDS011;5277;48.722;8.736;2023-06-01T14:06:26;10.00;;;4.82;;
10458;SDS011;5277;48.722;8.736;2023-06-01T14:08:52;6.85;;;5.20;;
10458;SDS011;5277;48.722;8.736;2023-06-01T14:11:17;11.70;;;4.95;;
10458;SDS011;5277;48.722;8.736;2023-06-01T14:13:43;8.32;;;5.55;;
10458;SDS011;5277;48.722;8.736;2023-06-01T14:16:09;6.82;;;3.83;;
10458;SDS011;5277;48.722;8.736;2023-06-01T14:18:34;5.30;;;3.90;;
10458;SDS011;5277;48.722;8.736;2023-06-01T14:21:00;4.50;;;3.95;;
10458;SDS011;5277;48.722;8.736;2023-06-01T14:23:26;7.25;;;4.90;;
10458;SDS011;5277;48.722;8.736;2023-06-01T14:25:51;5.40;;;4.07;;
10458;SDS011;5277;48.722;8.736;2023-06-01T14:28:17;4.38;;;3.50;;
10458;SDS011;5277;48.722;8.736;2023-06-01T14:30:42;7.78;;;4.53;;
10458;SDS011;5277;48.722;8.736;2023-06-01T14:33:08;11.50;;;7.88;;
10458;SDS011;5277;48.722;8.736;2023-06-01T14:35:34;12.90;;;5.70;;
10458;SDS011;5277;48.722;8.736;2023-06-01T14:37:59;8.20;;;3.70;;
10458;SDS011;5277;48.722;8.736;2023-06-01T14:40:25;9.80;;;4.68;;
10458;SDS011;5277;48.722;8.736;2023-06-01T14:42:51;4.32;;;3.00;;
10458;SDS011;5277;48.722;8.736;2023-06-01T14:45:16;4.63;;;3.13;;
10458;SDS011;5277;48.722;8.736;2023-06-01T14:47:44;5.47;;;3.30;;
10458;SDS011;5277;48.722;8.736;2023-06-01T14:50:10;3.83;;;2.88;;
10458;SDS011;5277;48.722;8.736;2023-06-01T14:52:35;6.07;;;2.90;;
10458;SDS011;5277;48.722;8.736;2023-06-01T14:55:01;5.13;;;2.65;;
10458;SDS011;5277;48.722;8.736;2023-06-01T14:57:27;4.53;;;2.70;;
10458;SDS011;5277;48.722;8.736;2023-06-01T14:59:52;4.93;;;2.60;;
10458;SDS011;5277;48.722;8.736;2023-06-01T15:02:18;4.30;;;2.63;;
10458;SDS011;5277;48.722;8.736;2023-06-01T15:04:44;5.78;;;2.78;;
10458;SDS011;5277;48.722;8.736;2023-06-01T15:07:10;3.10;;;2.55;;
10458;SDS011;5277;48.722;8.736;2023-06-01T15:09:35;3.67;;;2.90;;
10458;SDS011;5277;48.722;8.736;2023-06-01T15:12:01;7.05;;;2.80;;
10458;SDS011;5277;48.722;8.736;2023-06-01T15:14:27;3.60;;;2.65;;
10458;SDS011;5277;48.722;8.736;2023-06-01T15:16:52;6.68;;;2.72;;
10458;SDS011;5277;48.722;8.736;2023-06-01T15:19:18;5.93;;;2.67;;
10458;SDS011;5277;48.722;8.736;2023-06-01T15:21:44;4.90;;;2.55;;
10458;SDS011;5277;48.722;8.736;2023-06-01T15:24:09;3.88;;;2.40;;
10458;SDS011;5277;48.722;8.736;2023-06-01T15:26:35;4.75;;;2.50;;
10458;SDS011;5277;48.722;8.736;2023-06-01T15:29:02;5.85;;;2.50;;
10458;SDS011;5277;48.722;8.736;2023-06-01T15:31:27;4.28;;;2.40;;
10458;SDS011;5277;48.722;8.736;2023-06-01T15:33:53;4.75;;;2.40;;
10458;SDS011;5277;48.722;8.736;2023-06-01T15:36:19;4.93;;;2.90;;
10458;SDS011;5277;48.722;8.736;2023-06-01T15:38:45;3.60;;;2.47;;
10458;SDS011;5277;48.722;8.736;2023-06-01T15:41:10;3.45;;;2.45;;
10458;SDS011;5277;48.722;8.736;2023-06-01T15:43:36;3.22;;;2.45;;
10458;SDS011;5277;48.722;8.736;2023-06-01T15:46:02;3.92;;;2.30;;
10458;SDS011;5277;48.722;8.736;2023-06-01T15:48:28;4.18;;;2.22;;
10458;SDS011;5277;48.722;8.736;2023-06-01T15:50:54;5.35;;;2.15;;